Time;durP1;ratioP1;P1;durP2;ratioP2;P2;SDS_P1;SDS_P2;PMS_P1;PMS_P2;Temp;Humidity;BMP_temperature;BMP_pressure;BME280_temperature;BME280_humidity;BME280_pressure;Samples;Min_cycle;Max_cycle;Signal;HPM_P1;HPM_P2
2022/08/23 00:02:26;;;;;;;3.00;2.67;;;22.30;55.10;;;;;;5032565;28;20501;-51
2022/08/23 00:04:59;;;;;;;3.08;2.50;;;22.30;55.30;;;;;;5024986;28;20071;-51
2022/08/23 00:07:42;;;;;;;3.08;2.78;;;22.30;55.30;;;;;;5039485;28;20052;-51
2022/08/23 00:10:12;;;;;;;2.67;2.47;;;22.20;55.70;;;;;;5043864;28;20047;-48
2022/08/23 00:12:43;;;;;;;2.92;2.67;;;22.20;55.40;;;;;;5046599;28;20056;-49
2022/08/23 00:15:14;;;;;;;3.30;2.20;;;22.10;55.30;;;;;;5041419;28;20069;-48
2022/08/23 00:17:41;;;;;;;2.47;2.28;;;22.10;55.50;;;;;;5041385;28;20040;-50
2022/08/23 00:20:11;;;;;;;2.85;2.35;;;22.00;55.30;;;;;;5028908;28;20083;-48
2022/08/23 00:22:38;;;;;;;3.28;2.58;;;22.00;55.70;;;;;;5040445;28;20044;-51
2022/08/23 00:25:12;;;;;;;3.22;2.33;;;21.90;55.50;;;;;;5034444;28;20053;-48
2022/08/23 00:27:43;;;;;;;3.05;2.38;;;21.90;55.70;;;;;;5040385;28;20661;-48
2022/08/23 00:30:11;;;;;;;2.90;2.63;;;21.90;55.60;;;;;;5031463;28;20076;-49
2022/08/23 00:32:39;;;;;;;3.53;2.47;;;21.80;55.60;;;;;;5013870;28;20053;-48
2022/08/23 00:35:11;;;;;;;2.85;2.45;;;21.80;55.70;;;;;;5018747;28;20067;-48
2022/08/23 00:37:52;;;;;;;3.35;2.42;;;21.70;55.90;;;;;;5038504;28;20156;-51
2022/08/23 00:40:40;;;;;;;2.67;2.47;;;21.70;55.80;;;;;;5012183;28;20042;-51
2022/08/23 00:48:58;;;;;;;4.65;2.30;;;21.60;56.30;;;;;;5047694;28;20506;-49
2022/08/23 00:51:56;;;;;;;2.45;2.25;;;21.60;56.30;;;;;;5035106;28;20044;-50
2022/08/23 00:54:27;;;;;;;3.53;2.67;;;21.50;56.50;;;;;;5042113;28;20076;-48
2022/08/23 00:56:56;;;;;;;2.88;2.67;;;21.60;56.20;;;;;;5033346;28;20497;-52
2022/08/23 00:59:25;;;;;;;2.60;2.40;;;21.50;56.80;;;;;;5033585;28;20051;-47
2022/08/23 01:01:52;;;;;;;2.88;2.08;;;21.50;56.30;;;;;;5008219;28;20042;-50
2022/08/23 01:04:19;;;;;;;2.60;2.30;;;21.50;56.40;;;;;;5032091;28;20037;-49
2022/08/23 01:07:00;;;;;;;3.38;2.22;;;21.40;56.40;;;;;;5029453;28;20502;-49
2022/08/23 01:09:30;;;;;;;2.42;2.22;;;21.40;56.70;;;;;;5033330;28;20049;-47
2022/08/23 01:12:08;;;;;;;2.03;1.92;;;21.40;56.50;;;;;;5035188;28;20044;-48
2022/08/23 01:14:59;;;;;;;2.65;2.45;;;21.30;56.70;;;;;;5042251;28;20516;-50
2022/08/23 01:17:45;;;;;;;2.63;2.42;;;21.30;57.10;;;;;;5012985;28;20099;-51
2022/08/23 01:20:17;;;;;;;2.97;2.53;;;21.30;56.90;;;;;;5005119;28;20560;-48
2022/08/23 01:23:03;;;;;;;3.30;2.33;;;21.30;56.90;;;;;;5036581;28;20037;-49
2022/08/23 01:25:32;;;;;;;3.90;3.00;;;21.30;57.10;;;;;;5011125;28;20042;-49
2022/08/23 01:27:59;;;;;;;3.53;3.22;;;21.20;56.60;;;;;;4993878;28;20065;-50
2022/08/23 01:30:31;;;;;;;2.83;2.63;;;21.20;57.20;;;;;;4995355;28;20412;-51
2022/08/23 01:33:03;;;;;;;3.47;3.13;;;21.20;56.80;;;;;;5024067;28;20110;-47
2022/08/23 01:35:44;;;;;;;2.50;2.30;;;21.10;56.60;;;;;;5026065;28;20120;-51
2022/08/23 01:38:14;;;;;;;4.25;3.05;;;21.10;57.10;;;;;;5040815;28;20046;-50
2022/08/23 01:40:43;;;;;;;2.75;2.50;;;21.10;56.60;;;;;;5033910;28;20037;-47
2022/08/23 01:43:12;;;;;;;3.10;2.80;;;21.00;56.70;;;;;;5040494;28;20453;-50
2022/08/23 01:45:43;;;;;;;4.30;2.83;;;21.00;56.80;;;;;;5032642;28;20056;-50
2022/08/23 01:48:14;;;;;;;2.80;2.58;;;21.00;56.70;;;;;;5042180;28;20596;-48
2022/08/23 01:50:47;;;;;;;2.92;2.63;;;21.00;56.70;;;;;;5022378;28;20049;-47
2022/08/23 01:53:18;;;;;;;3.33;3.03;;;21.00;56.80;;;;;;5024194;28;20505;-49
2022/08/23 01:55:48;;;;;;;3.90;2.75;;;20.90;56.90;;;;;;5031947;28;20052;-51
2022/08/23 01:58:17;;;;;;;4.22;2.55;;;20.90;56.80;;;;;;5011368;28;20714;-48
2022/08/23 02:00:44;;;;;;;3.13;2.90;;;20.90;56.80;;;;;;5037202;28;20048;-48
2022/08/23 02:03:12;;;;;;;3.17;2.20;;;20.90;56.80;;;;;;5042106;28;20037;-50
2022/08/23 02:05:41;;;;;;;3.50;2.80;;;20.80;56.90;;;;;;5053006;28;20512;-47
2022/08/23 02:11:10;;;;;;;2.97;2.65;;;20.80;56.90;;;;;;5026083;28;20045;-52
2022/08/23 02:13:38;;;;;;;2.50;2.28;;;20.70;57.20;;;;;;5036405;28;20048;-48
2022/08/23 02:16:06;;;;;;;2.97;2.78;;;20.70;56.90;;;;;;5024379;28;20107;-51
2022/08/23 02:18:33;;;;;;;3.70;3.40;;;20.60;57.00;;;;;;5031630;28;20049;-50
2022/08/23 02:21:03;;;;;;;4.03;2.92;;;20.60;57.10;;;;;;5017110;28;20084;-47
2022/08/23 02:23:35;;;;;;;4.55;3.25;;;20.60;57.30;;;;;;5025176;28;20069;-48
2022/08/23 02:26:09;;;;;;;4.57;3.15;;;20.60;57.10;;;;;;5016293;28;20052;-48
2022/08/23 02:28:36;;;;;;;3.13;2.83;;;20.50;57.00;;;;;;5013470;28;20050;-48
2022/08/23 02:31:04;;;;;;;3.00;2.80;;;20.50;57.20;;;;;;5028219;28;20497;-48
2022/08/23 02:33:34;;;;;;;3.50;3.10;;;20.40;57.20;;;;;;5029704;28;20048;-51
2022/08/23 02:36:05;;;;;;;3.63;2.83;;;20.40;57.30;;;;;;5035736;28;20041;-51
2022/08/23 02:38:34;;;;;;;3.25;2.72;;;20.40;57.30;;;;;;5028035;28;20461;-51
2022/08/23 02:41:04;;;;;;;;;;;20.30;57.40;;;;;;5052003;28;20405;-48
2022/08/23 02:43:36;;;;;;;2.83;2.58;;;20.40;56.80;;;;;;5052422;28;19920;-52
2022/08/23 02:46:09;;;;;;;4.68;3.08;;;20.30;56.80;;;;;;5039627;28;20042;-48
2022/08/23 02:48:36;;;;;;;2.63;2.38;;;20.30;57.00;;;;;;5027691;28;20402;-52
2022/08/23 02:51:07;;;;;;;3.00;2.70;;;20.20;57.20;;;;;;5035976;28;20049;-48
2022/08/23 02:53:36;;;;;;;5.35;3.10;;;20.20;57.50;;;;;;5019492;28;20049;-50
2022/08/23 02:56:06;;;;;;;3.30;2.90;;;20.20;57.50;;;;;;5021345;28;20056;-48
2022/08/23 02:58:51;;;;;;;2.63;2.43;;;20.10;57.50;;;;;;5019665;28;20095;-51
2022/08/23 03:01:24;;;;;;;2.92;2.13;;;20.10;57.60;;;;;;5016089;28;20707;-47
2022/08/23 03:03:55;;;;;;;3.17;2.97;;;20.10;57.80;;;;;;5014373;28;20128;-51
2022/08/23 03:06:23;;;;;;;2.65;2.45;;;20.00;57.80;;;;;;5026977;28;20092;-47
2022/08/23 03:08:53;;;;;;;2.85;2.60;;;20.00;57.70;;;;;;5035663;28;20047;-47
2022/08/23 03:11:22;;;;;;;2.92;2.33;;;20.00;57.90;;;;;;5029829;28;20052;-47
2022/08/23 03:13:53;;;;;;;5.40;2.83;;;20.00;57.90;;;;;;5002996;28;20469;-51
2022/08/23 03:16:24;;;;;;;3.53;2.85;;;20.00;58.00;;;;;;5035631;28;20048;-51
2022/08/23 03:18:54;;;;;;;3.38;2.90;;;19.90;58.30;;;;;;5035374;28;20050;-51
2022/08/23 03:21:21;;;;;;;2.72;2.53;;;19.90;57.90;;;;;;5003370;28;20464;-49
2022/08/23 03:23:48;;;;;;;4.15;2.97;;;19.90;58.00;;;;;;5024589;28;20041;-51
2022/08/23 03:26:20;;;;;;;3.05;2.80;;;19.90;58.10;;;;;;5026806;28;20509;-49
2022/08/23 03:28:47;;;;;;;4.57;3.67;;;19.90;58.20;;;;;;5028265;28;20053;-50
2022/08/23 03:31:15;;;;;;;3.28;2.58;;;19.90;58.40;;;;;;5032055;28;20046;-49
2022/08/23 03:34:00;;;;;;;4.00;2.80;;;19.80;58.50;;;;;;5028091;28;20056;-49
2022/08/23 03:36:27;;;;;;;3.38;2.90;;;19.80;58.40;;;;;;5027714;28;20045;-47
2022/08/23 03:38:56;;;;;;;3.65;2.92;;;19.80;58.40;;;;;;5051649;28;20120;-49
2022/08/23 03:41:25;;;;;;;3.75;3.33;;;19.80;58.90;;;;;;5041316;28;20461;-47
2022/08/23 03:43:52;;;;;;;3.97;2.78;;;19.80;58.60;;;;;;5041094;28;20049;-47
2022/08/23 03:46:24;;;;;;;3.20;2.90;;;19.80;58.70;;;;;;5019058;28;20572;-46
2022/08/23 03:48:59;;;;;;;4.20;3.17;;;19.70;58.70;;;;;;5034881;28;20640;-48
2022/08/23 03:51:33;;;;;;;3.15;2.88;;;19.70;58.80;;;;;;5015589;28;20102;-47
2022/08/23 03:54:01;;;;;;;3.08;2.80;;;19.70;58.80;;;;;;5037134;28;20486;-48
2022/08/23 03:56:48;;;;;;;3.10;2.67;;;19.70;58.80;;;;;;5034414;28;20513;-48
2022/08/23 03:59:15;;;;;;;3.10;2.83;;;19.70;59.30;;;;;;5022241;28;20033;-48
2022/08/23 04:01:43;;;;;;;3.30;3.00;;;19.70;58.60;;;;;;5007964;28;20136;-52
2022/08/23 04:04:15;;;;;;;4.22;2.92;;;19.70;58.60;;;;;;5033087;28;20073;-48
2022/08/23 04:06:58;;;;;;;3.22;2.92;;;19.60;58.70;;;;;;5015267;28;20045;-51
2022/08/23 04:09:30;;;;;;;3.50;3.20;;;19.60;58.50;;;;;;5032820;28;20052;-51
2022/08/23 04:11:57;;;;;;;3.25;3.03;;;19.60;58.60;;;;;;5025784;28;20068;-49
2022/08/23 04:14:26;;;;;;;4.10;2.85;;;19.50;58.70;;;;;;5043675;28;20044;-49
2022/08/23 04:16:55;;;;;;;3.70;3.10;;;19.50;58.70;;;;;;5035976;28;20064;-51
2022/08/23 04:19:22;;;;;;;3.22;2.88;;;19.50;58.70;;;;;;5030099;28;20103;-47
2022/08/23 04:22:02;;;;;;;3.33;2.88;;;19.50;58.80;;;;;;5040609;28;20514;-51
2022/08/23 04:24:36;;;;;;;3.95;3.20;;;19.50;58.80;;;;;;5051234;28;20128;-47
2022/08/23 04:27:04;;;;;;;3.90;3.15;;;19.50;58.80;;;;;;5020101;28;20037;-48
2022/08/23 04:29:32;;;;;;;4.10;3.00;;;19.40;58.90;;;;;;5031709;28;20505;-47
2022/08/23 04:32:02;;;;;;;4.05;2.78;;;19.40;58.90;;;;;;5040480;28;20076;-48
2022/08/23 04:34:35;;;;;;;3.15;2.88;;;19.40;58.90;;;;;;5025754;28;20049;-48
2022/08/23 04:37:02;;;;;;;3.33;2.75;;;19.40;59.00;;;;;;5044905;28;20534;-48
2022/08/23 04:42:16;;;;;;;3.80;3.42;;;19.40;59.10;;;;;;5027429;28;20106;-48
2022/08/23 04:42:23;;;;;;;4.78;2.92;;;19.40;59.30;;;;;;5015327;28;20518;-50
2022/08/23 04:44:57;;;;;;;5.65;3.30;;;19.30;59.10;;;;;;5031866;28;20041;-48
2022/08/23 04:47:28;;;;;;;3.65;2.75;;;19.30;59.20;;;;;;5012748;28;20098;-50
2022/08/23 04:49:58;;;;;;;3.70;3.08;;;19.30;59.40;;;;;;5034956;28;20041;-48
2022/08/23 04:52:24;;;;;;;4.78;3.83;;;19.30;59.50;;;;;;5039544;28;20049;-50
2022/08/23 04:54:52;;;;;;;3.38;3.08;;;19.30;59.60;;;;;;5013451;28;20045;-47
2022/08/23 04:57:31;;;;;;;3.75;3.25;;;19.40;59.80;;;;;;5015735;28;20136;-48
2022/08/23 05:00:01;;;;;;;4.80;3.40;;;19.40;59.80;;;;;;5037885;28;20129;-50
2022/08/23 05:02:32;;;;;;;5.35;3.50;;;19.40;59.90;;;;;;5048910;28;20044;-51
2022/08/23 05:05:00;;;;;;;3.95;3.10;;;19.40;60.00;;;;;;5025494;28;20738;-49
2022/08/23 05:07:33;;;;;;;3.70;3.40;;;19.40;60.10;;;;;;5018942;28;20044;-49
2022/08/23 05:10:12;;;;;;;3.53;2.90;;;19.40;60.10;;;;;;5024336;28;20772;-49
2022/08/23 05:12:43;;;;;;;3.90;3.50;;;19.40;60.40;;;;;;5018229;28;20053;-48
2022/08/23 05:15:12;;;;;;;4.68;3.25;;;19.40;60.30;;;;;;5042155;28;20502;-52
2022/08/23 05:17:46;;;;;;;6.00;3.58;;;19.40;60.60;;;;;;5006051;28;20510;-48
2022/08/23 05:20:14;;;;;;;3.33;3.03;;;19.50;60.40;;;;;;5015889;28;20076;-50
2022/08/23 05:22:46;;;;;;;8.80;3.53;;;19.50;60.60;;;;;;5041474;28;20063;-47
2022/08/23 05:25:51;;;;;;;3.95;3.15;;;19.50;60.60;;;;;;5014976;28;20053;-49
2022/08/23 05:28:34;;;;;;;3.88;3.47;;;19.50;60.90;;;;;;5042863;28;20060;-48
2022/08/23 05:31:04;;;;;;;4.40;3.78;;;19.60;60.80;;;;;;5030378;28;20136;-47
2022/08/23 05:33:41;;;;;;;4.30;3.78;;;19.60;61.20;;;;;;5023070;28;20135;-50
2022/08/23 05:36:11;;;;;;;4.22;3.55;;;19.70;61.30;;;;;;5041457;28;20049;-48
2022/08/23 05:38:38;;;;;;;4.55;4.07;;;19.70;61.70;;;;;;5033010;28;20494;-51
2022/08/23 05:41:07;;;;;;;4.78;4.32;;;19.70;61.90;;;;;;5026110;28;20045;-48
2022/08/23 05:43:35;;;;;;;4.03;3.33;;;19.80;62.10;;;;;;5005425;28;20455;-50
2022/08/23 05:46:11;;;;;;;4.97;3.97;;;19.80;62.50;;;;;;5038565;28;20037;-47
2022/08/23 05:48:50;;;;;;;7.50;4.90;;;19.90;63.20;;;;;;5029256;28;20397;-49
2022/08/23 05:51:22;;;;;;;11.38;6.22;;;20.00;63.00;;;;;;5025433;28;20042;-51
2022/08/23 05:53:54;;;;;;;5.72;4.90;;;20.10;64.20;;;;;;5021265;28;20041;-48
2022/08/23 05:56:28;;;;;;;7.57;4.57;;;20.30;63.80;;;;;;5013346;28;20099;-49
2022/08/23 05:58:59;;;;;;;8.05;4.22;;;20.40;64.60;;;;;;5029741;28;20041;-50
2022/08/23 06:01:31;;;;;;;7.30;4.65;;;20.50;64.90;;;;;;5005686;28;20123;-48
2022/08/23 06:04:08;;;;;;;7.10;5.00;;;20.60;64.00;;;;;;5041910;28;20095;-47
2022/08/23 06:06:41;;;;;;;6.72;5.32;;;20.70;64.30;;;;;;5016802;28;20122;-47
2022/08/23 06:09:15;;;;;;;5.53;4.55;;;20.80;63.50;;;;;;5023213;28;20148;-48
2022/08/23 06:11:44;;;;;;;5.75;4.60;;;21.00;63.40;;;;;;5032985;28;20073;-50
2022/08/23 06:14:19;;;;;;;5.72;5.18;;;21.10;63.00;;;;;;5011549;28;20049;-48
2022/08/23 06:16:48;;;;;;;7.65;4.78;;;21.20;63.10;;;;;;5028026;28;20079;-47
2022/08/23 06:19:23;;;;;;;7.97;4.80;;;21.40;62.80;;;;;;5029494;28;20045;-51
2022/08/23 06:22:02;;;;;;;9.18;5.75;;;21.50;61.80;;;;;;5028126;28;20564;-48
2022/08/23 06:24:36;;;;;;;7.13;4.68;;;21.70;61.90;;;;;;5024470;28;20068;-48
2022/08/23 06:27:11;;;;;;;9.38;5.10;;;21.80;61.10;;;;;;5032765;28;20069;-50
2022/08/23 06:29:39;;;;;;;10.45;4.70;;;22.00;60.70;;;;;;5020271;28;20517;-48
2022/08/23 06:32:25;;;;;;;6.28;4.68;;;22.10;60.20;;;;;;5042572;28;20086;-48
2022/08/23 06:35:12;;;;;;;9.95;6.28;;;22.30;59.90;;;;;;5048877;28;20053;-51
2022/08/23 06:38:06;;;;;;;7.13;5.18;;;22.40;59.20;;;;;;5018321;28;20052;-49
2022/08/23 06:41:11;;;;;;;7.57;5.38;;;22.60;58.90;;;;;;5033788;28;20502;-48
2022/08/23 06:43:45;;;;;;;6.90;4.72;;;22.80;58.50;;;;;;5024331;28;20273;-48
2022/08/23 06:46:23;;;;;;;10.50;6.32;;;22.80;58.50;;;;;;5048992;28;20387;-47
2022/08/23 06:48:54;;;;;;;8.48;5.78;;;22.90;58.50;;;;;;5018092;28;20056;-50
2022/08/23 06:51:28;;;;;;;7.35;5.50;;;23.00;57.80;;;;;;5046206;28;20049;-47
2022/08/23 06:54:07;;;;;;;9.40;5.55;;;23.10;58.10;;;;;;5050422;28;20500;-48
2022/08/23 06:56:48;;;;;;;7.63;5.60;;;23.20;57.50;;;;;;5048734;28;20045;-49
2022/08/23 06:59:19;;;;;;;7.15;5.22;;;23.30;58.00;;;;;;5012090;28;20727;-47
2022/08/23 07:02:13;;;;;;;8.10;5.15;;;23.30;58.20;;;;;;5044339;28;20122;-48
2022/08/23 07:05:06;;;;;;;9.30;4.90;;;23.30;57.50;;;;;;5023184;28;20528;-49
2022/08/23 07:07:42;;;;;;;9.20;5.20;;;23.40;56.90;;;;;;5037124;28;20055;-48
2022/08/23 07:10:14;;;;;;;7.88;5.10;;;23.40;56.70;;;;;;5044735;28;20052;-49
2022/08/23 07:12:42;;;;;;;7.07;4.55;;;23.50;56.60;;;;;;5036008;28;20045;-47
2022/08/23 07:15:12;;;;;;;8.63;4.75;;;23.50;56.40;;;;;;5046354;28;20637;-50
2022/08/23 07:17:42;;;;;;;7.55;5.22;;;23.50;56.60;;;;;;5018634;28;20053;-49
2022/08/23 07:20:09;;;;;;;9.48;5.93;;;23.50;56.70;;;;;;5042842;28;20049;-51
2022/08/23 07:22:57;;;;;;;9.05;5.07;;;23.50;56.50;;;;;;5040533;28;20049;-48
2022/08/23 07:25:25;;;;;;;7.38;5.30;;;23.50;56.40;;;;;;5032736;28;20072;-51
2022/08/23 07:28:00;;;;;;;8.82;4.35;;;23.50;56.40;;;;;;5027211;28;20045;-50
2022/08/23 07:30:27;;;;;;;6.50;4.70;;;23.50;56.90;;;;;;5053549;28;20041;-47
2022/08/23 07:32:54;;;;;;;8.32;5.03;;;23.40;57.00;;;;;;5023728;28;20053;-47
2022/08/23 07:35:27;;;;;;;7.60;4.72;;;23.40;56.90;;;;;;5021501;28;20095;-48
2022/08/23 07:37:57;;;;;;;13.55;4.70;;;23.40;56.90;;;;;;5044066;28;20044;-48
2022/08/23 07:40:32;;;;;;;9.35;4.60;;;23.50;56.80;;;;;;5028827;28;20095;-48
2022/08/23 07:43:05;;;;;;;12.35;5.40;;;23.40;57.00;;;;;;5051775;28;20052;-50
2022/08/23 07:45:35;;;;;;;7.82;4.55;;;23.40;56.90;;;;;;5038742;28;20041;-49
2022/08/23 07:48:07;;;;;;;6.60;4.80;;;23.50;57.00;;;;;;5025657;28;20045;-49
2022/08/23 07:50:54;;;;;;;7.60;5.35;;;23.50;57.00;;;;;;5030428;28;20045;-48
2022/08/23 07:53:29;;;;;;;7.80;4.35;;;23.60;57.10;;;;;;5015952;28;20513;-48
2022/08/23 07:56:09;;;;;;;7.32;4.40;;;23.60;57.20;;;;;;5037271;28;20196;-47
2022/08/23 07:58:56;;;;;;;11.13;4.93;;;23.60;57.00;;;;;;5036937;28;20528;-49
2022/08/23 08:01:48;;;;;;;11.02;4.70;;;23.70;56.60;;;;;;5029950;28;20409;-49
2022/08/23 08:04:15;;;;;;;8.02;4.30;;;23.80;56.20;;;;;;5021731;28;20048;-51
2022/08/23 08:06:51;;;;;;;8.80;4.30;;;23.80;55.60;;;;;;5043095;28;20051;-48
2022/08/23 08:09:42;;;;;;;7.68;3.90;;;23.90;55.30;;;;;;5034872;28;20048;-52
2022/08/23 08:12:14;;;;;;;7.60;4.10;;;24.00;55.20;;;;;;5035914;28;20045;-48
2022/08/23 08:14:42;;;;;;;6.63;3.90;;;24.10;55.80;;;;;;5029489;28;20049;-48
2022/08/23 08:17:11;;;;;;;7.65;4.10;;;24.10;54.70;;;;;;5044010;28;20421;-47
2022/08/23 08:20:07;;;;;;;;;;;24.20;54.20;;;;;;5017229;28;20072;-50
2022/08/23 08:22:53;;;;;;;5.90;3.85;;;24.30;54.30;;;;;;5016577;28;20357;-48
2022/08/23 08:25:25;;;;;;;6.75;3.58;;;24.40;53.90;;;;;;5033498;28;20132;-50
2022/08/23 08:27:57;;;;;;;6.95;3.65;;;24.50;53.70;;;;;;5031579;28;20069;-50
2022/08/23 08:30:28;;;;;;;6.50;4.30;;;24.50;53.40;;;;;;5015213;28;20045;-47
2022/08/23 08:32:59;;;;;;;7.38;3.83;;;24.60;53.20;;;;;;5016496;28;20111;-47
2022/08/23 08:35:28;;;;;;;10.10;4.05;;;24.70;52.90;;;;;;5043811;28;20037;-48
2022/08/23 08:37:57;;;;;;;7.35;3.65;;;24.70;53.30;;;;;;5051274;28;20068;-49
2022/08/23 08:40:32;;;;;;;6.75;3.92;;;24.80;52.60;;;;;;5034360;28;20050;-47
2022/08/23 08:43:32;;;;;;;6.95;3.38;;;24.80;52.40;;;;;;5028831;28;20055;-48
2022/08/23 08:46:12;;;;;;;10.07;3.50;;;24.90;52.30;;;;;;4984085;28;20053;-48
2022/08/23 08:48:49;;;;;;;5.53;3.38;;;25.00;52.30;;;;;;5023264;28;20620;-50
2022/08/23 08:51:43;;;;;;;5.25;2.80;;;25.10;51.50;;;;;;5012599;28;20103;-48
2022/08/23 08:54:15;;;;;;;7.68;3.40;;;25.20;51.50;;;;;;5023447;28;20045;-49
2022/08/23 08:56:50;;;;;;;5.72;3.95;;;25.30;51.80;;;;;;5045303;28;20420;-50
2022/08/23 08:59:44;;;;;;;6.00;3.28;;;25.30;51.80;;;;;;5009927;28;20056;-47
2022/08/23 09:02:17;;;;;;;3.25;2.92;;;25.40;51.50;;;;;;5024044;28;20119;-47
2022/08/23 09:05:05;;;;;;;7.47;3.28;;;25.50;51.50;;;;;;5031634;28;20413;-47
2022/08/23 09:08:02;;;;;;;3.63;3.33;;;25.50;51.60;;;;;;5033882;28;20041;-48
2022/08/23 09:10:56;;;;;;;7.55;3.55;;;25.60;51.60;;;;;;5015900;28;20107;-47
2022/08/23 09:13:46;;;;;;;3.25;2.85;;;25.70;51.50;;;;;;5014586;28;20049;-49
2022/08/23 09:16:25;;;;;;;6.20;3.58;;;25.80;51.50;;;;;;5035442;28;20040;-48
2022/08/23 09:18:55;;;;;;;5.10;2.75;;;25.80;51.40;;;;;;5007985;28;20073;-48
2022/08/23 09:21:23;;;;;;;4.13;2.88;;;25.90;51.20;;;;;;5041554;28;20025;-49
2022/08/23 09:23:54;;;;;;;5.75;2.88;;;26.00;51.10;;;;;;5048015;28;20405;-49
2022/08/23 09:26:42;;;;;;;8.30;2.72;;;26.10;50.80;;;;;;5022697;28;20052;-51
2022/08/23 09:29:44;;;;;;;6.60;2.92;;;26.20;50.60;;;;;;5026040;28;20036;-48
2022/08/23 09:32:32;;;;;;;7.18;2.53;;;26.20;50.50;;;;;;5023546;28;20092;-49
2022/08/23 09:35:19;;;;;;;5.55;2.70;;;26.30;49.90;;;;;;5030573;28;20417;-48
2022/08/23 09:38:01;;;;;;;4.43;2.70;;;26.30;49.80;;;;;;5032771;28;20128;-51
2022/08/23 09:40:57;;;;;;;5.82;2.78;;;26.40;50.10;;;;;;5015096;28;20049;-48
2022/08/23 09:43:27;;;;;;;5.35;3.03;;;26.50;49.60;;;;;;5029264;28;20053;-52
2022/08/23 09:45:59;;;;;;;4.28;2.40;;;26.60;48.70;;;;;;5026833;28;20041;-51
2022/08/23 09:48:41;;;;;;;4.63;3.65;;;26.60;48.60;;;;;;5024452;28;20061;-49
2022/08/23 09:51:23;;;;;;;6.88;3.65;;;26.70;49.00;;;;;;5024754;28;20075;-48
2022/08/23 09:54:07;;;;;;;4.97;3.70;;;26.70;49.00;;;;;;5033081;28;20045;-51
2022/08/23 09:56:44;;;;;;;3.45;2.83;;;26.80;48.50;;;;;;5033824;28;20458;-48
2022/08/23 09:59:25;;;;;;;8.05;3.28;;;26.90;47.80;;;;;;5037764;28;20513;-49
2022/08/23 10:01:59;;;;;;;5.43;2.90;;;27.00;48.10;;;;;;5046719;28;20071;-48
2022/08/23 10:04:41;;;;;;;6.15;2.72;;;27.00;48.20;;;;;;5021696;28;20053;-48
2022/08/23 10:07:26;;;;;;;5.40;3.17;;;27.10;48.10;;;;;;5018679;28;20081;-48
2022/08/23 10:10:24;;;;;;;4.45;2.80;;;27.20;47.80;;;;;;5024650;28;20042;-49
2022/08/23 10:12:57;;;;;;;5.57;2.55;;;27.30;47.50;;;;;;5049616;28;20045;-48
2022/08/23 10:15:38;;;;;;;;;;;27.40;47.40;;;;;;5026633;28;20107;-48
2022/08/23 10:18:23;;;;;;;3.30;2.25;;;27.50;47.90;;;;;;5022802;28;19922;-51
2022/08/23 10:20:57;;;;;;;3.03;2.45;;;27.50;46.50;;;;;;5029291;28;20556;-50
2022/08/23 10:24:04;;;;;;;4.40;3.03;;;27.60;46.50;;;;;;5019844;28;20076;-52
2022/08/23 10:26:44;;;;;;;4.10;2.50;;;27.60;45.80;;;;;;5022500;28;20038;-48
2022/08/23 10:29:37;;;;;;;4.80;3.00;;;27.70;46.00;;;;;;5043223;28;20063;-48
2022/08/23 10:32:13;;;;;;;3.72;2.13;;;27.70;46.20;;;;;;5005915;28;20057;-48
2022/08/23 10:35:23;;;;;;;2.65;1.60;;;27.70;45.00;;;;;;5044688;28;20512;-48
2022/08/23 10:38:16;;;;;;;4.72;1.80;;;27.80;44.80;;;;;;5029019;28;20521;-51
2022/08/23 10:41:21;;;;;;;3.58;1.90;;;27.80;44.90;;;;;;5037682;28;20137;-48
2022/08/23 10:44:17;;;;;;;3.80;2.25;;;27.90;44.90;;;;;;4995176;28;20084;-50
2022/08/23 10:46:56;;;;;;;4.32;2.47;;;27.90;44.50;;;;;;5019475;28;20046;-49
2022/08/23 10:49:27;;;;;;;2.97;1.88;;;28.00;45.50;;;;;;4997211;28;20041;-52
2022/08/23 10:51:56;;;;;;;2.93;2.23;;;28.10;45.10;;;;;;5000971;28;20124;-48
2022/08/23 10:54:34;;;;;;;5.97;2.10;;;28.10;45.30;;;;;;5021768;28;20087;-49
2022/08/23 10:57:06;;;;;;;;;;;28.20;44.40;;;;;;5036068;28;20460;-48
2022/08/23 10:59:35;;;;;;;3.85;1.98;;;28.30;45.30;;;;;;5034066;28;20011;-51
2022/08/23 11:02:25;;;;;;;3.67;2.00;;;28.40;44.40;;;;;;5007972;28;20043;-48
2022/08/23 11:05:17;;;;;;;2.60;1.85;;;28.40;43.70;;;;;;5027092;28;20083;-48
2022/08/23 11:08:14;;;;;;;6.90;2.53;;;28.50;43.50;;;;;;5054181;28;20440;-49
2022/08/23 11:10:47;;;;;;;2.60;1.50;;;28.50;43.90;;;;;;4995524;28;20052;-49
2022/08/23 11:13:28;;;;;;;5.80;2.13;;;28.50;43.70;;;;;;5019166;28;20136;-49
2022/08/23 11:16:04;;;;;;;3.95;2.20;;;28.50;44.00;;;;;;5026239;28;20057;-48
2022/08/23 11:18:41;;;;;;;2.97;2.08;;;28.60;43.60;;;;;;5014016;28;20056;-51
2022/08/23 11:21:35;;;;;;;4.43;2.33;;;28.70;43.80;;;;;;5032090;28;20478;-51
2022/08/23 11:24:11;;;;;;;3.53;1.98;;;28.90;43.80;;;;;;5040252;28;20045;-48
2022/08/23 11:26:40;;;;;;;7.35;2.22;;;29.00;43.70;;;;;;5053282;28;20063;-49
2022/08/23 11:29:23;;;;;;;4.38;2.50;;;29.20;43.90;;;;;;5019418;28;20053;-48
2022/08/23 11:32:18;;;;;;;4.57;2.00;;;29.30;43.70;;;;;;5041333;28;20076;-50
2022/08/23 11:35:09;;;;;;;3.08;2.22;;;29.60;43.10;;;;;;5033375;28;20695;-48
2022/08/23 11:37:58;;;;;;;3.60;2.53;;;29.80;43.30;;;;;;5014122;28;20054;-50
2022/08/23 11:40:42;;;;;;;2.85;1.67;;;30.00;42.70;;;;;;5034344;28;20155;-52
2022/08/23 11:43:36;;;;;;;4.93;1.98;;;30.20;42.10;;;;;;5009302;28;20041;-51
2022/08/23 11:46:13;;;;;;;4.97;2.53;;;30.30;41.80;;;;;;5034886;28;20037;-48
2022/08/23 11:48:42;;;;;;;3.50;2.28;;;30.30;41.70;;;;;;5042493;28;20079;-49
2022/08/23 11:51:43;;;;;;;4.45;2.28;;;30.40;42.20;;;;;;5031663;28;20111;-49
2022/08/23 11:54:22;;;;;;;2.95;2.10;;;30.40;41.10;;;;;;5036183;28;20488;-49
2022/08/23 11:57:16;;;;;;;5.85;2.00;;;30.50;41.20;;;;;;5038229;28;20041;-49
2022/08/23 12:00:16;;;;;;;2.38;1.70;;;30.60;41.50;;;;;;5033939;28;20099;-51
2022/08/23 12:03:03;;;;;;;1.67;1.58;;;30.70;41.20;;;;;;5037021;28;20044;-49
2022/08/23 12:05:32;;;;;;;3.42;1.88;;;30.70;40.80;;;;;;5032937;28;20112;-51
2022/08/23 12:08:01;;;;;;;1.65;1.40;;;30.80;40.50;;;;;;5028591;28;20046;-48
2022/08/23 12:10:40;;;;;;;3.40;1.45;;;30.90;40.80;;;;;;5045097;28;20464;-50
2022/08/23 12:13:18;;;;;;;1.85;1.40;;;31.00;40.10;;;;;;5051407;28;20048;-49
2022/08/23 12:16:24;;;;;;;2.78;1.48;;;31.10;39.90;;;;;;5044301;28;20419;-52
2022/08/23 12:18:58;;;;;;;1.60;1.38;;;31.20;39.40;;;;;;5046314;28;20116;-52
2022/08/23 12:21:41;;;;;;;3.22;1.33;;;31.30;39.20;;;;;;5043514;28;20073;-49
2022/08/23 12:24:51;;;;;;;2.28;1.30;;;31.30;39.00;;;;;;5032687;28;20041;-49
2022/08/23 12:27:54;;;;;;;4.03;1.70;;;31.30;38.70;;;;;;4982156;28;20046;-48
2022/08/23 12:30:37;;;;;;;3.50;1.05;;;31.40;38.80;;;;;;4975379;28;20058;-52
2022/08/23 12:33:46;;;;;;;1.55;0.88;;;31.40;38.70;;;;;;5027129;28;20061;-52
2022/08/23 12:36:46;;;;;;;0.80;0.80;;;31.60;38.90;;;;;;5031239;28;20402;-49
2022/08/23 12:39:20;;;;;;;7.50;1.48;;;31.70;38.90;;;;;;5043165;28;20033;-48
2022/08/23 12:42:05;;;;;;;2.92;1.20;;;31.80;38.50;;;;;;5052265;28;20094;-50
2022/08/23 12:44:32;;;;;;;4.53;1.38;;;31.90;38.10;;;;;;5046587;28;20120;-52
2022/08/23 12:47:17;;;;;;;1.15;0.98;;;31.90;38.20;;;;;;5035615;28;20056;-49
2022/08/23 12:50:18;;;;;;;1.88;1.27;;;32.00;37.80;;;;;;5042969;28;20090;-48
2022/08/23 12:53:06;;;;;;;2.83;1.45;;;32.00;38.20;;;;;;5030748;28;20104;-50
2022/08/23 12:55:39;;;;;;;2.25;0.90;;;32.10;38.00;;;;;;5033694;28;20045;-48
2022/08/23 12:58:09;;;;;;;2.17;1.10;;;32.10;38.00;;;;;;5042109;28;20103;-49
2022/08/23 13:00:49;;;;;;;2.55;1.63;;;32.10;37.70;;;;;;5032075;28;20099;-49
2022/08/23 13:03:19;;;;;;;4.45;1.40;;;32.10;37.30;;;;;;5027191;28;20037;-49
2022/08/23 13:05:52;;;;;;;4.18;1.20;;;32.20;37.80;;;;;;5039950;28;20713;-48
2022/08/23 13:08:25;;;;;;;2.38;1.30;;;32.30;37.50;;;;;;5043676;28;20087;-50
2022/08/23 13:11:01;;;;;;;2.63;1.20;;;32.30;37.10;;;;;;5042474;28;20045;-48
2022/08/23 13:13:39;;;;;;;1.77;1.15;;;32.50;38.00;;;;;;5027247;28;20049;-51
2022/08/23 13:16:32;;;;;;;2.55;1.15;;;32.60;37.60;;;;;;5036545;28;20037;-52
2022/08/23 13:19:22;;;;;;;5.38;1.50;;;32.70;37.10;;;;;;5033953;28;20073;-52
2022/08/23 13:22:16;;;;;;;3.00;1.40;;;32.80;37.20;;;;;;5014521;28;20042;-49
2022/08/23 13:25:03;;;;;;;1.90;1.02;;;32.90;37.10;;;;;;5039711;28;20056;-48
2022/08/23 13:27:57;;;;;;;4.13;1.33;;;33.00;37.00;;;;;;5043752;28;20041;-49
2022/08/23 13:30:36;;;;;;;1.55;1.13;;;33.10;36.40;;;;;;5050018;28;20217;-48
2022/08/23 13:33:06;;;;;;;2.90;1.52;;;33.10;35.90;;;;;;5032823;28;20072;-52
2022/08/23 13:35:42;;;;;;;1.10;1.00;;;33.20;35.70;;;;;;5042818;28;20636;-49
2022/08/23 13:38:12;;;;;;;1.83;1.25;;;33.40;35.90;;;;;;5051582;28;20060;-48
2022/08/23 13:40:46;;;;;;;2.38;1.20;;;33.60;36.40;;;;;;5036023;28;20049;-48
2022/08/23 13:43:22;;;;;;;2.17;0.90;;;33.90;36.20;;;;;;5042159;28;20053;-53
2022/08/23 13:45:56;;;;;;;1.58;1.20;;;34.30;35.10;;;;;;5046423;28;20452;-53
2022/08/23 13:48:36;;;;;;;3.10;1.02;;;34.70;34.50;;;;;;5044737;28;20041;-49